Portada
METAR-TAF:

METAR-TAF

Aeroports :

Crystal River, Florida, Estats Units d'Amèrica

latitud: 28-52-02N, longitud: 082-34-17W, altitud: 3 m

Observació

L'informe es va fer fa 17 minuts, a les 21:55 UTC
Vent 11 kt del Oest
Temperatura 13°C
Humitat 44%
Pressió 1024 hPa
Visibilitat: 16.1 km
Cel clar

METAR: KCGC 282155Z AUTO 27011KT 10SM CLR 13/01 A3024 RMK AO2

Hora: 17:12 (22:12 UTC)


TAF: manca

Observacions i pronòstics meteorològics de més de 4000 aeroports (METAR i TAF).

Les estacions disponibles són els punts grocs i vermells al mapa.

Posi el ratolí al punt desitjat per veure el nom de l'estació.

Feu clic per veure les observacions i els pronòstics meteorològics.

Per canviar el mapa: feu clic els botons verds amb una creu de color negre per apropar; al botó verd amb un guió per allunyar la imatge; o en les fletxes verdes per a mapes adjacents.


METAR-TAF: